TS691 / C-GTQC 7700 Squawk Report (16th of November, 2019)

Aircraft B738 Reg No. C-GTQC Age 13 years old
Model 737 Jet engines 2 First flight 21-03-06
Registered 30-05-14 Rollout 13-03-06 Delivered 06-04-06
Construction No. 29368 Line No. 1910 Series 8Q8
ADSHEX C07877 Airline name Air Transat Owner Aercap Holdings N.V.
Airfield based Montreal-Dorval~QC~C First tracked 2017-07-13 20:49:00

Flight history for C-GTQC

Route Flight No Date Playback
Vancouver International (YVR) - Pierre Elliott Trudeau (YUL) TS772 2019-12-11 22:49:00
Pierre Elliott Trudeau (YUL) - Vancouver International (YVR) TS753 2019-12-11 05:38:00
Vancouver International (YVR) - Pierre Elliott Trudeau (YUL) TS742 2019-12-11 00:03:00
Pierre Elliott Trudeau (YUL) - Vancouver International (YVR) TS743 2019-12-10 05:58:00
Frank Pais Intl (HOG) - Pierre Elliott Trudeau (YUL) TS979 2019-12-10 00:44:00
Pierre Elliott Trudeau (YUL) - Frank Pais Intl (HOG) TS978 2019-12-09 19:48:00
Toronto Pearson International (YYZ) - Pierre Elliott Trudeau (YUL) TS483 2019-12-09 14:07:00
Pierre Elliott Trudeau (YUL) - Toronto Pearson International (YYZ) TS482 2019-12-09 01:15:00
Samaná El Catey International Airport (AZS) - Pierre Elliott Trudeau (YUL) TS973 2019-12-09 00:10:00
Pierre Elliott Trudeau (YUL) - Samaná El Catey International Airport (AZS) TS972 2019-12-08 18:21:00
Abel Santamaria (SNU) - Pierre Elliott Trudeau (YUL) TS139 2019-12-08 13:12:00
Pierre Elliott Trudeau (YUL) - Abel Santamaria (SNU) TS138 2019-12-08 02:30:00
Juan Gualberto Gomez Intl (VRA) - Pierre Elliott Trudeau (YUL) TS631 2019-12-07 21:31:00
Pierre Elliott Trudeau (YUL) - Juan Gualberto Gomez Intl (VRA) TS630 2019-12-07 16:39:00
Gregorio Luperón Intl (POP) - Pierre Elliott Trudeau (YUL) TS807 2019-12-07 11:14:00
Pierre Elliott Trudeau (YUL) - Gregorio Luperón Intl (POP) TS806 2019-12-06 23:23:00
Samaná El Catey International Airport (AZS) - Pierre Elliott Trudeau (YUL) TS217 2019-12-06 22:08:00
Pierre Elliott Trudeau (YUL) - Samaná El Catey International Airport (AZS) TS216 2019-12-06 16:13:00
Toronto Pearson International (YYZ) - Pierre Elliott Trudeau (YUL) TS451 2019-12-06 11:15:00
Juan Gualberto Gomez Intl (VRA) - Toronto Pearson International (YYZ) TS695 2019-12-05 23:22:00
Time Lat Lon Altitude Heading Speed Vertical Rate
2019-11-16 18:16:40 GMT 28.413902 -81.321877 200 0 164 -896
2019-11-16 18:16:31 GMT 28.405989 -81.321823 350 0 162 -960
2019-11-16 18:16:19 GMT 28.398010 -81.321754 500 0 164 -960
2019-11-16 18:16:10 GMT 28.391512 -81.321663 650 0 164 -960
2019-11-16 18:16:03 GMT 28.385134 -81.321609 750 0 164 -960
2019-11-16 18:15:57 GMT 28.381027 -81.321594 850 0 163 -896
2019-11-16 18:15:45 GMT 28.372696 -81.321434 1,000 359 159 -832
2019-11-16 18:15:36 GMT 28.365646 -81.321434 1,150 0 156 -832
2019-11-16 18:15:24 GMT 28.356674 -81.321381 1,325 0 157 -896
2019-11-16 18:15:15 GMT 28.350815 -81.321274 1,450 0 159 -960
2019-11-16 18:15:05 GMT 28.343004 -81.321175 1,600 0 159 -832
2019-11-16 18:14:55 GMT 28.335323 -81.321121 1,750 359 160 -704
2019-11-16 18:14:44 GMT 28.327469 -81.321014 1,900 0 159 -960
2019-11-16 18:14:38 GMT 28.322754 -81.320961 2,100 0 159 -832
2019-11-16 18:14:32 GMT 28.318472 -81.320908 2,075 0 159 -896
2019-11-16 18:14:29 GMT 28.316702 -81.320908 2,100 0 159 -896
2019-11-16 18:14:22 GMT 28.310465 -81.320801 2,225 0 159 -896
2019-11-16 18:14:14 GMT 28.303343 -81.320694 2,375 0 162 -832
2019-11-16 18:14:08 GMT 28.300781 -81.320694 2,425 0 164 -960
2019-11-16 18:14:03 GMT 28.296844 -81.320694 2,600 0 169 -1024
2019-11-16 18:13:59 GMT 28.294216 -81.320641 2,575 0 169 -1024
2019-11-16 18:13:52 GMT 28.288864 -81.320587 2,675 0 172 -960
2019-11-16 18:13:49 GMT 28.283417 -81.320480 2,775 0 173 -1024
2019-11-16 18:13:41 GMT 28.278576 -81.320534 2,875 0 175 -1024
2019-11-16 18:13:38 GMT 28.277435 -81.320534 2,900 0 174 -1088
2019-11-16 18:13:32 GMT 28.271942 -81.320534 3,025 359 174 -1152
2019-11-16 18:13:27 GMT 28.268566 -81.320374 3,100 359 173 -960
2019-11-16 18:13:20 GMT 28.262375 -81.320168 3,225 0 169 -960
2019-11-16 18:13:12 GMT 28.255951 -81.320152 3,350 0 169 -896
2019-11-16 18:13:09 GMT 28.253159 -81.320099 3,425 0 169 -832
2019-11-16 18:12:58 GMT 28.245758 -81.320007 3,550 0 172 -960
2019-11-16 18:12:55 GMT 28.243336 -81.319939 3,550 0 172 -960
2019-11-16 18:12:48 GMT 28.236420 -81.319954 3,725 0 176 -1024
2019-11-16 18:12:45 GMT 28.235092 -81.320007 3,750 0 176 -1024
2019-11-16 18:12:41 GMT 28.231325 -81.319992 3,850 0 177 -1152
2019-11-16 18:12:37 GMT 28.228546 -81.320007 3,950 0 186 -960
2019-11-16 18:12:34 GMT 28.226065 -81.319939 4,025 0 179 -1088
2019-11-16 18:12:27 GMT 28.219360 -81.319832 4,075 0 184 -896
2019-11-16 18:12:18 GMT 28.212250 -81.319740 4,225 0 188 -960
2019-11-16 18:12:13 GMT 28.208189 -81.319672 4,250 0 191 -1024
2019-11-16 18:12:10 GMT 28.204603 -81.319672 4,350 0 196 -1088
2019-11-16 18:12:06 GMT 28.201859 -81.319641 4,675 0 203 -1216
2019-11-16 18:12:02 GMT 28.195221 -81.319641 4,550 0 201 -1152
2019-11-16 18:11:57 GMT 28.192200 -81.319588 4,600 0 203 -1152
2019-11-16 18:11:53 GMT 28.189178 -81.319534 4,675 359 205 -1216
2019-11-16 18:11:48 GMT 28.184601 -81.319481 4,775 0 207 -1216
2019-11-16 18:11:43 GMT 28.179420 -81.319450 4,875 0 209 -1280
2019-11-16 18:11:39 GMT 28.174942 -81.319427 4,975 0 210 -1216
2019-11-16 18:11:35 GMT 28.171005 -81.319427 5,150 0 213 -1152
2019-11-16 18:11:32 GMT 28.169083 -81.319427 5,100 0 212 -1216
2019-11-16 18:11:26 GMT 28.158937 -81.319405 5,225 0 215 -1216
2019-11-16 18:11:22 GMT 28.158937 -81.319405 5,275 0 215 -1280
2019-11-16 18:11:14 GMT 28.150139 -81.319290 5,450 0 217 -1216
2019-11-16 18:11:11 GMT 28.147888 -81.319267 5,500 0 218 -1216
2019-11-16 18:11:05 GMT 28.137360 -81.319115 5,700 0 219 -1216
2019-11-16 18:11:00 GMT 28.133652 -81.319115 5,725 0 221 -1152
2019-11-16 18:10:57 GMT 28.133652 -81.319115 5,775 0 222 -1088
2019-11-16 18:10:53 GMT 28.129330 -81.319023 5,875 359 223 -1024
2019-11-16 18:10:50 GMT 28.126862 -81.318970 5,900 359 223 -1024
2019-11-16 18:10:46 GMT 28.122894 -81.318901 5,950 359 224 -1088
2019-11-16 18:10:42 GMT 28.117271 -81.318756 6,075 359 225 -1152
2019-11-16 18:10:39 GMT 28.104750 -81.318428 6,250 359 225 -1088
2019-11-16 18:10:29 GMT 28.104750 -81.318428 6,250 359 227 -1024
2019-11-16 18:10:26 GMT 28.101351 -81.318428 6,325 0 230 -768
2019-11-16 18:10:18 GMT 28.093718 -81.318375 6,425 0 230 -704
2019-11-16 18:10:15 GMT 28.090485 -81.318375 6,450 0 230 -704
2019-11-16 18:10:06 GMT 28.079145 -81.318214 6,575 0 232 -768
2019-11-16 18:09:58 GMT 28.070953 -81.318161 6,675 0 233 -448
2019-11-16 18:09:54 GMT 28.067089 -81.318214 6,700 1 233 -448
2019-11-16 18:09:50 GMT 28.063179 -81.318321 6,775 1 232 -448
2019-11-16 18:09:47 GMT 28.059540 -81.318420 6,775 1 232 -448
2019-11-16 18:09:44 GMT 28.056519 -81.318581 6,775 2 233 -448
2019-11-16 18:09:39 GMT 28.051540 -81.318756 6,800 1 232 -512
2019-11-16 18:09:35 GMT 28.045954 -81.318970 6,850 0 231 -448
2019-11-16 18:09:26 GMT 28.037155 -81.318954 6,900 0 230 -384
2019-11-16 18:09:19 GMT 28.030172 -81.318756 6,950 357 227 -448
2019-11-16 18:09:16 GMT 28.024063 -81.318321 7,000 356 226 -384
2019-11-16 18:09:09 GMT 28.018204 -81.317787 7,025 356 225 -384
2019-11-16 18:09:05 GMT 28.014252 -81.317459 7,050 356 224 -192
2019-11-16 18:09:02 GMT 28.012344 -81.317261 7,050 355 224 -128
2019-11-16 18:08:56 GMT 28.004929 -81.316360 7,050 353 223 0
2019-11-16 18:08:53 GMT 28.002457 -81.315941 7,050 351 223 0
2019-11-16 18:08:44 GMT 27.992512 -81.313690 7,050 346 221 0
2019-11-16 18:08:37 GMT 27.986601 -81.311752 7,050 337 219 0
2019-11-16 18:08:32 GMT 27.977524 -81.307610 7,050 337 219 0
2019-11-16 18:08:27 GMT 27.977524 -81.307610 7,050 337 219 0
2019-11-16 18:08:23 GMT 27.972681 -81.305237 7,050 337 219 64
2019-11-16 18:08:14 GMT 27.964115 -81.301033 7,050 337 219 0
2019-11-16 18:08:10 GMT 27.960938 -81.299461 7,050 337 219 0
2019-11-16 18:08:06 GMT 27.957365 -81.297699 7,050 337 219 0
2019-11-16 18:08:01 GMT 27.952744 -81.295395 7,050 337 219 0
2019-11-16 18:07:57 GMT 27.948055 -81.293121 7,050 337 219 64
2019-11-16 18:07:51 GMT 27.943039 -81.290588 7,050 337 219 -64
2019-11-16 18:07:40 GMT 27.933159 -81.285728 7,050 337 219 0
2019-11-16 18:07:35 GMT 27.928116 -81.283234 7,050 337 219 0
2019-11-16 18:07:30 GMT 27.923264 -81.280792 7,050 337 219 0
2019-11-16 18:07:25 GMT 27.919189 -81.278770 7,050 337 219 64
2019-11-16 18:07:22 GMT 27.915236 -81.276802 7,050 337 219 64
2019-11-16 18:07:18 GMT 27.912460 -81.275459 7,050 337 219 64
2019-11-16 18:07:14 GMT 27.909649 -81.274055 7,050 338 220 0
2019-11-16 18:07:09 GMT 27.903442 -81.271103 7,050 338 220 0
2019-11-16 18:07:03 GMT 27.898865 -81.269028 7,050 339 220 0
2019-11-16 18:06:57 GMT 27.893555 -81.266647 7,050 339 220 0
2019-11-16 18:06:50 GMT 27.885956 -81.263229 7,050 339 220 -64
2019-11-16 18:06:47 GMT 27.882696 -81.261803 7,050 339 219 -64
2019-11-16 18:06:39 GMT 27.874969 -81.258354 7,075 339 218 0
2019-11-16 18:06:29 GMT 27.866495 -81.254616 7,050 338 217 0
2019-11-16 18:06:26 GMT 27.863888 -81.253403 7,050 338 217 0
2019-11-16 18:06:19 GMT 27.856567 -81.249237 7,075 317 210 64
2019-11-16 18:06:15 GMT 27.853180 -81.246231 7,075 317 210 64
2019-11-16 18:06:10 GMT 27.850761 -81.243103 7,050 308 209 64
2019-11-16 18:06:07 GMT 27.847780 -81.237450 7,050 296 210 0
2019-11-16 18:05:57 GMT 27.845779 -81.224457 7,050 270 215 64
2019-11-16 18:05:45 GMT 27.846619 -81.216850 7,050 261 216 0
2019-11-16 18:05:37 GMT 27.848236 -81.206375 7,050 262 214 64
2019-11-16 18:05:34 GMT 27.848433 -81.204811 7,050 261 214 64
2019-11-16 18:05:24 GMT 27.849970 -81.193298 7,050 262 214 64
2019-11-16 18:05:15 GMT 27.851532 -81.182487 7,025 247 222 0
2019-11-16 18:05:12 GMT 27.855515 -81.170464 7,025 180 261 -704
2019-11-16 18:05:03 GMT 27.855515 -81.170464 7,050 236 229 0
2019-11-16 18:04:55 GMT 27.863663 -81.160927 7,050 196 253 -768
2019-11-16 18:04:43 GMT 27.874191 -81.155693 7,150 196 253 -768
2019-11-16 18:04:39 GMT 27.878647 -81.154739 7,200 180 261 -704
2019-11-16 18:04:34 GMT 27.884884 -81.154320 7,275 181 261 -768
2019-11-16 18:04:31 GMT 27.887054 -81.154297 7,275 179 261 -768
2019-11-16 18:04:20 GMT 27.900101 -81.154297 7,425 181 260 -704
2019-11-16 18:04:14 GMT 27.907837 -81.154243 7,500 181 259 -768
2019-11-16 18:04:10 GMT 27.912861 -81.154266 7,525 181 259 -768
2019-11-16 18:04:05 GMT 27.919830 -81.154243 7,600 181 259 -704
2019-11-16 18:04:01 GMT 27.924637 -81.154190 7,650 181 258 -704
2019-11-16 18:03:57 GMT 27.927757 -81.154160 7,675 182 257 -704
2019-11-16 18:03:51 GMT 27.935623 -81.153877 7,750 182 255 -576
2019-11-16 18:03:48 GMT 27.940142 -81.153748 7,800 182 256 -704
2019-11-16 18:03:41 GMT 27.948195 -81.153473 7,875 182 255 -576
2019-11-16 18:03:36 GMT 27.952944 -81.153313 7,925 182 255 -576
2019-11-16 18:03:32 GMT 27.957691 -81.153152 7,950 182 256 -576
2019-11-16 18:03:27 GMT 27.963593 -81.152992 8,000 182 256 -576
2019-11-16 18:03:24 GMT 27.968811 -81.152840 8,050 182 256 -640
2019-11-16 18:03:17 GMT 27.975241 -81.152611 8,100 182 256 -640
2019-11-16 18:03:14 GMT 27.979012 -81.152557 8,150 181 256 -576
2019-11-16 18:03:07 GMT 27.987808 -81.152359 8,200 181 256 -576
2019-11-16 18:03:04 GMT 27.990883 -81.152344 8,225 181 256 -576
2019-11-16 18:03:00 GMT 27.996368 -81.152306 8,275 180 258 -576
2019-11-16 18:02:56 GMT 28.000893 -81.152290 8,325 180 259 -576
2019-11-16 18:02:53 GMT 28.003778 -81.152290 8,325 180 259 -576
2019-11-16 18:02:43 GMT 28.015835 -81.152290 8,525 179 263 -512
2019-11-16 18:02:35 GMT 28.026075 -81.152397 8,525 179 265 -640
2019-11-16 18:02:32 GMT 28.030243 -81.152466 8,525 179 265 -640
2019-11-16 18:02:28 GMT 28.034967 -81.152557 8,575 179 266 -640
2019-11-16 18:02:25 GMT 28.038666 -81.152573 8,600 179 268 -576
2019-11-16 18:02:22 GMT 28.045397 -81.152664 8,625 179 272 -192
2019-11-16 18:02:19 GMT 28.045397 -81.152664 8,650 179 270 -448
2019-11-16 18:02:13 GMT 28.058304 -81.152840 8,750 178 284 -448
2019-11-16 18:02:10 GMT 28.065739 -81.152939 8,750 178 284 -448
2019-11-16 18:02:03 GMT 28.065739 -81.152939 8,750 178 280 -384
2019-11-16 18:01:59 GMT 28.071978 -81.153099 8,725 178 282 -384
2019-11-16 18:01:51 GMT 28.082031 -81.153366 8,850 178 290 -448
2019-11-16 18:01:48 GMT 28.086315 -81.153526 8,825 178 290 -448
2019-11-16 18:01:40 GMT 28.097992 -81.153839 8,875 178 296 -384
2019-11-16 18:01:30 GMT 28.111313 -81.154160 8,950 178 304 -704
2019-11-16 18:01:26 GMT 28.115845 -81.154266 9,000 178 304 -768
2019-11-16 18:01:20 GMT 28.125792 -81.154442 9,125 179 308 -1408
2019-11-16 18:01:16 GMT 28.130676 -81.154526 9,200 179 308 -1472
2019-11-16 18:01:11 GMT 28.137802 -81.154549 9,300 179 308 -1408
2019-11-16 18:01:08 GMT 28.143219 -81.154633 9,400 179 308 -1536
2019-11-16 18:01:00 GMT 28.157772 -81.154930 9,650 178 307 -1664
2019-11-16 18:00:57 GMT 28.157772 -81.154930 9,650 178 307 -1664
2019-11-16 18:00:50 GMT 28.168015 -81.155197 9,875 178 307 -1216
2019-11-16 18:00:46 GMT 28.173386 -81.155373 9,925 178 307 -1280
2019-11-16 18:00:37 GMT 28.187622 -81.155846 10,150 178 307 -1536
2019-11-16 18:00:27 GMT 28.201532 -81.156326 10,350 178 306 -1216
2019-11-16 18:00:24 GMT 28.204102 -81.156425 10,400 178 306 -1216
2019-11-16 18:00:18 GMT 28.214355 -81.156799 10,525 177 307 -1152
2019-11-16 18:00:14 GMT 28.220032 -81.157059 10,600 177 308 -1152
2019-11-16 18:00:06 GMT 28.232025 -81.157539 10,775 177 308 -1344
2019-11-16 17:59:55 GMT 28.246593 -81.158104 11,000 177 309 -1088
2019-11-16 17:59:45 GMT 28.261826 -81.158646 11,175 177 311 -1024
2019-11-16 17:59:36 GMT 28.277435 -81.159279 11,325 177 313 -1216
2019-11-16 17:59:33 GMT 28.292868 -81.159882 11,625 177 321 -1088
2019-11-16 17:59:23 GMT 28.292868 -81.159882 11,525 178 317 -768
2019-11-16 17:59:14 GMT 28.304552 -81.160316 11,625 178 317 -832
2019-11-16 17:59:11 GMT 28.311356 -81.160545 11,700 177 321 -1088
2019-11-16 17:59:04 GMT 28.324356 -81.161026 11,775 178 320 -512
2019-11-16 17:58:52 GMT 28.339828 -81.161659 11,925 177 321 -960
2019-11-16 17:58:43 GMT 28.352921 -81.162239 12,050 178 322 0
2019-11-16 17:58:38 GMT 28.359467 -81.162453 12,050 178 322 -192
2019-11-16 17:58:33 GMT 28.373495 -81.162788 12,050 178 321 0
2019-11-16 17:58:28 GMT 28.373495 -81.162788 12,050 178 321 0
2019-11-16 17:58:22 GMT 28.383039 -81.163010 12,050 178 320 0
2019-11-16 17:58:19 GMT 28.388672 -81.163139 12,050 178 321 0
2019-11-16 17:58:11 GMT 28.399384 -81.163399 12,050 178 320 64
2019-11-16 17:58:07 GMT 28.405617 -81.163544 12,050 178 320 64
2019-11-16 17:58:01 GMT 28.414261 -81.163773 12,050 178 319 0
2019-11-16 17:57:58 GMT 28.420467 -81.163925 12,050 178 320 0
2019-11-16 17:57:50 GMT 28.432068 -81.164192 12,050 178 320 0
2019-11-16 17:57:46 GMT 28.436527 -81.164352 12,050 178 320 0
2019-11-16 17:57:40 GMT 28.445114 -81.164566 12,050 178 319 0
2019-11-16 17:57:37 GMT 28.450121 -81.164726 12,050 178 319 0
2019-11-16 17:57:30 GMT 28.460222 -81.165001 12,050 178 319 64
2019-11-16 17:57:27 GMT 28.465805 -81.165146 12,050 178 319 64
2019-11-16 17:57:20 GMT 28.474979 -81.165428 12,050 178 319 -64
2019-11-16 17:57:16 GMT 28.480591 -81.165565 12,050 178 319 0
2019-11-16 17:57:09 GMT 28.490389 -81.165863 12,050 178 319 64
2019-11-16 17:57:06 GMT 28.496567 -81.166039 12,050 178 318 64
2019-11-16 17:56:59 GMT 28.505997 -81.166359 12,050 178 318 -64
2019-11-16 17:56:56 GMT 28.511902 -81.166573 12,050 178 318 0
2019-11-16 17:56:47 GMT 28.522835 -81.166885 12,050 178 318 64
2019-11-16 17:56:44 GMT 28.529306 -81.167099 12,050 178 318 0
2019-11-16 17:56:38 GMT 28.536383 -81.167366 12,050 178 317 -64
2019-11-16 17:56:33 GMT 28.544018 -81.167587 12,050 178 317 0
2019-11-16 17:56:26 GMT 28.554291 -81.167892 12,050 178 316 64
2019-11-16 17:56:23 GMT 28.560450 -81.168068 12,050 178 316 64
2019-11-16 17:56:19 GMT 28.566315 -81.168175 12,050 178 316 64
2019-11-16 17:56:16 GMT 28.568939 -81.168259 12,050 178 316 64
2019-11-16 17:56:13 GMT 28.574509 -81.168388 12,050 178 316 64
2019-11-16 17:56:06 GMT 28.582993 -81.168579 12,050 178 316 0
2019-11-16 17:56:02 GMT 28.591499 -81.168770 12,050 179 316 0
2019-11-16 17:55:57 GMT 28.598530 -81.168877 12,050 179 316 0
2019-11-16 17:55:51 GMT 28.606165 -81.169037 12,050 179 316 0
2019-11-16 17:55:46 GMT 28.617004 -81.169212 12,050 179 315 64
2019-11-16 17:55:40 GMT 28.623714 -81.169312 12,050 179 315 0
2019-11-16 17:55:37 GMT 28.627207 -81.169365 12,050 179 315 0
2019-11-16 17:55:34 GMT 28.631012 -81.169373 12,050 179 314 0
2019-11-16 17:55:30 GMT 28.637121 -81.169365 12,050 182 313 0
2019-11-16 17:55:25 GMT 28.644928 -81.168945 12,050 185 310 0
2019-11-16 17:55:22 GMT 28.648666 -81.168556 12,050 188 308 0
2019-11-16 17:55:14 GMT 28.658524 -81.166672 12,050 193 305 -64
2019-11-16 17:55:10 GMT 28.666168 -81.164352 12,075 204 298 64
2019-11-16 17:55:06 GMT 28.675049 -81.160652 12,050 202 299 64
2019-11-16 17:55:02 GMT 28.675049 -81.160652 12,050 206 297 64
2019-11-16 17:54:58 GMT 28.683975 -81.155739 12,050 209 295 0
2019-11-16 17:54:55 GMT 28.683975 -81.155739 12,050 209 296 0
2019-11-16 17:54:51 GMT 28.688324 -81.153046 12,050 209 295 0
2019-11-16 17:54:48 GMT 28.693588 -81.149773 12,050 209 295 0
2019-11-16 17:54:44 GMT 28.698151 -81.146957 12,050 209 295 0
2019-11-16 17:54:38 GMT 28.705170 -81.142647 12,050 209 295 0
2019-11-16 17:54:33 GMT 28.711395 -81.138786 12,050 209 295 64
2019-11-16 17:54:30 GMT 28.714539 -81.136833 12,050 209 294 64
2019-11-16 17:54:26 GMT 28.720047 -81.133453 12,050 209 295 64
2019-11-16 17:54:23 GMT 28.721752 -81.132416 12,050 209 295 64
2019-11-16 17:54:19 GMT 28.727526 -81.128860 12,050 209 295 0
2019-11-16 17:54:15 GMT 28.732132 -81.126060 12,050 209 295 0
2019-11-16 17:54:12 GMT 28.736481 -81.123367 12,050 209 296 64
2019-11-16 17:54:08 GMT 28.739868 -81.121307 12,050 209 296 64
2019-11-16 17:54:04 GMT 28.746140 -81.117500 12,050 208 299 64
2019-11-16 17:53:59 GMT 28.752245 -81.113785 12,050 209 297 -64
2019-11-16 17:53:52 GMT 28.760742 -81.108627 12,050 208 299 64
2019-11-16 17:53:48 GMT 28.764908 -81.106140 12,050 208 299 0
2019-11-16 17:53:45 GMT 28.771042 -81.102448 12,050 208 299 0
2019-11-16 17:53:41 GMT 28.773514 -81.100967 12,050 208 301 0
2019-11-16 17:53:38 GMT 28.778221 -81.098167 12,050 208 301 -64
2019-11-16 17:53:35 GMT 28.782131 -81.095795 12,050 209 301 0
2019-11-16 17:53:31 GMT 28.787066 -81.092781 12,050 209 301 64
2019-11-16 17:53:25 GMT 28.792513 -81.089493 12,050 209 302 0
2019-11-16 17:53:22 GMT 28.796982 -81.086861 12,050 209 302 0
2019-11-16 17:53:19 GMT 28.800426 -81.084755 12,050 209 302 0
2019-11-16 17:53:16 GMT 28.804382 -81.082336 12,050 209 302 0
2019-11-16 17:53:10 GMT 28.818008 -81.074135 12,050 209 302 0
2019-11-16 17:53:05 GMT 28.818008 -81.074135 12,050 208 303 0
2019-11-16 17:53:02 GMT 28.822998 -81.071129 12,050 209 302 0
2019-11-16 17:52:58 GMT 28.827194 -81.068604 12,050 209 302 0
2019-11-16 17:52:55 GMT 28.830685 -81.066498 12,050 209 302 0
2019-11-16 17:52:51 GMT 28.836643 -81.062889 12,050 208 301 0
2019-11-16 17:52:44 GMT 28.843323 -81.058922 12,050 208 301 64
2019-11-16 17:52:39 GMT 28.851242 -81.054169 12,050 208 301 64
2019-11-16 17:52:34 GMT 28.856476 -81.051094 12,050 208 301 0
2019-11-16 17:52:30 GMT 28.862183 -81.047783 12,050 208 300 0
2019-11-16 17:52:23 GMT 28.869837 -81.043289 12,050 208 300 0
2019-11-16 17:52:19 GMT 28.879705 -81.037476 12,050 208 299 0
2019-11-16 17:52:16 GMT 28.879705 -81.037476 12,050 208 299 0
2019-11-16 17:52:12 GMT 28.882685 -81.035751 12,050 208 298 0
2019-11-16 17:52:09 GMT 28.888084 -81.032570 12,050 208 298 0
2019-11-16 17:52:04 GMT 28.893723 -81.029243 12,050 208 297 64
2019-11-16 17:52:01 GMT 28.896418 -81.027672 12,050 208 297 64
2019-11-16 17:51:57 GMT 28.903015 -81.023750 12,050 208 296 0
2019-11-16 17:51:54 GMT 28.907171 -81.021317 12,050 208 296 0
2019-11-16 17:51:47 GMT 28.914478 -81.017006 12,050 209 293 64
2019-11-16 17:51:41 GMT 28.921509 -81.012917 12,050 209 293 64
2019-11-16 17:51:36 GMT 28.928284 -81.008850 12,050 209 293 64
2019-11-16 17:51:31 GMT 28.934052 -81.005363 12,050 209 292 64
2019-11-16 17:51:28 GMT 28.937149 -81.003487 12,050 209 292 64
2019-11-16 17:51:25 GMT 28.940735 -81.001297 12,050 209 291 64
2019-11-16 17:51:22 GMT 28.945250 -80.998428 12,050 210 291 0
2019-11-16 17:51:17 GMT 28.950623 -80.994965 12,050 211 290 0
2019-11-16 17:51:14 GMT 28.953415 -80.993057 12,050 212 289 64
2019-11-16 17:51:11 GMT 28.957031 -80.990471 12,025 214 289 64
2019-11-16 17:51:08 GMT 28.961264 -80.987228 12,050 220 288 0
2019-11-16 17:51:04 GMT 28.964291 -80.984695 12,050 228 292 -704
2019-11-16 17:51:01 GMT 28.968201 -80.981018 12,025 225 290 -64
2019-11-16 17:50:54 GMT 28.974579 -80.974030 12,050 227 292 -512
2019-11-16 17:50:47 GMT 28.980537 -80.966812 12,150 228 298 -576
2019-11-16 17:50:43 GMT 28.984959 -80.961266 12,175 228 298 -576
2019-11-16 17:50:40 GMT 28.988729 -80.956635 12,200 228 302 -768
2019-11-16 17:50:37 GMT 28.989895 -80.955185 12,250 228 304 -896
2019-11-16 17:50:31 GMT 28.995667 -80.948128 12,325 228 305 -1152
2019-11-16 17:50:27 GMT 29.000107 -80.942673 12,450 228 307 -1728
2019-11-16 17:50:24 GMT 29.003586 -80.938393 12,550 227 307 -1920
2019-11-16 17:50:18 GMT 29.008469 -80.932457 12,825 228 307 -1792
2019-11-16 17:50:13 GMT 29.018738 -80.919853 13,050 228 307 -1664
2019-11-16 17:50:08 GMT 29.018738 -80.919853 13,025 227 309 -1984
2019-11-16 17:50:03 GMT 29.023970 -80.913391 13,200 227 308 -2112
2019-11-16 17:49:59 GMT 29.028076 -80.908394 13,325 227 308 -2048
2019-11-16 17:49:55 GMT 29.030457 -80.905594 13,400 227 308 -2048
2019-11-16 17:49:49 GMT 29.036539 -80.898254 13,525 227 308 -2112
2019-11-16 17:49:45 GMT 29.040915 -80.893089 13,800 227 306 -2368
2019-11-16 17:49:40 GMT 29.045837 -80.887260 13,950 227 306 -2304
2019-11-16 17:49:34 GMT 29.055115 -80.876343 14,225 225 302 -2304
2019-11-16 17:49:31 GMT 29.055115 -80.876343 14,375 226 305 -2112
2019-11-16 17:49:26 GMT 29.060282 -80.870415 14,475 225 305 -2240
2019-11-16 17:49:20 GMT 29.066116 -80.863815 14,775 225 304 -2368
2019-11-16 17:49:13 GMT 29.072758 -80.856361 15,075 225 301 -1984
2019-11-16 17:49:09 GMT 29.077133 -80.851402 15,125 225 301 -2048
2019-11-16 17:49:02 GMT 29.083883 -80.843811 15,350 225 301 -2048
2019-11-16 17:48:59 GMT 29.087265 -80.839989 15,450 225 301 -1984
2019-11-16 17:48:56 GMT 29.093536 -80.832756 15,900 227 299 -1856
2019-11-16 17:48:52 GMT 29.093536 -80.832756 15,675 226 300 -2112
2019-11-16 17:48:49 GMT 29.097662 -80.828033 15,825 226 300 -2112
2019-11-16 17:48:45 GMT 29.106182 -80.818016 16,100 226 300 -1920
2019-11-16 17:48:39 GMT 29.110418 -80.812950 16,175 227 299 -1792
2019-11-16 17:48:36 GMT 29.110418 -80.812950 16,225 227 301 -1856
2019-11-16 17:48:31 GMT 29.117569 -80.804497 16,925 227 302 -1856
2019-11-16 17:48:28 GMT 29.117569 -80.804497 16,600 226 303 -1728
2019-11-16 17:48:25 GMT 29.124384 -80.796417 16,650 226 303 -1728
2019-11-16 17:48:20 GMT 29.124384 -80.796417 16,650 226 303 -1728
2019-11-16 17:48:17 GMT 29.130297 -80.789474 16,950 226 306 -1664
2019-11-16 17:48:10 GMT 29.134415 -80.784637 16,975 227 306 -2048
2019-11-16 17:48:07 GMT 29.138535 -80.779778 17,050 226 306 -1856
2019-11-16 17:47:59 GMT 29.144669 -80.772537 17,400 227 306 -2048
2019-11-16 17:47:56 GMT 29.149197 -80.767174 17,575 227 306 -1920
2019-11-16 17:47:52 GMT 29.155479 -80.759689 17,625 227 306 -1984
2019-11-16 17:47:44 GMT 29.160183 -80.754036 17,775 227 306 -2240
2019-11-16 17:47:40 GMT 29.169819 -80.742188 18,050 228 305 -2176
2019-11-16 17:47:35 GMT 29.169819 -80.742188 18,125 228 305 -2112
2019-11-16 17:47:31 GMT 29.173874 -80.737259 18,275 227 304 -2304
2019-11-16 17:47:26 GMT 29.177353 -80.733032 18,400 227 304 -2304
2019-11-16 17:47:23 GMT 29.185410 -80.723152 19,225 228 303 -2240
2019-11-16 17:47:17 GMT 29.185410 -80.723152 18,700 228 303 -1920
2019-11-16 17:47:13 GMT 29.189417 -80.718170 19,250 228 305 -1600
2019-11-16 17:47:03 GMT 29.198959 -80.706375 19,125 228 305 -1792
2019-11-16 17:47:00 GMT 29.201843 -80.702820 19,150 228 305 -1728
2019-11-16 17:46:55 GMT 29.206833 -80.696640 19,350 228 307 -1472
2019-11-16 17:46:52 GMT 29.210724 -80.691887 19,450 228 307 -1472
2019-11-16 17:46:49 GMT 29.214203 -80.687553 19,525 228 309 -1472
2019-11-16 17:46:46 GMT 29.215904 -80.685371 19,575 228 309 -1472
2019-11-16 17:46:42 GMT 29.220795 -80.679314 19,650 228 310 -1472
2019-11-16 17:46:35 GMT 29.226242 -80.672554 19,825 228 312 -1472
2019-11-16 17:46:32 GMT 29.230335 -80.667381 19,975 228 314 -1344
2019-11-16 17:46:27 GMT 29.234713 -80.661995 20,000 226 321 -1600
2019-11-16 17:46:24 GMT 29.237085 -80.659035 20,075 228 316 -1472
2019-11-16 17:46:21 GMT 29.241508 -80.653648 20,200 227 318 -1536
2019-11-16 17:46:14 GMT 29.248077 -80.646248 20,375 213 332 -2176
2019-11-16 17:46:09 GMT 29.253571 -80.640915 21,750 215 330 -2112
2019-11-16 17:46:04 GMT 29.259710 -80.635719 20,650 213 332 -2176
2019-11-16 17:46:00 GMT 29.266506 -80.630867 20,725 212 333 -2176
2019-11-16 17:45:56 GMT 29.271442 -80.627800 20,950 206 338 -2112
2019-11-16 17:45:52 GMT 29.276779 -80.624809 21,075 201 342 -2176
2019-11-16 17:45:45 GMT 29.286526 -80.620422 21,300 199 345 -2240
2019-11-16 17:45:40 GMT 29.293835 -80.617836 21,675 194 348 -2048
2019-11-16 17:45:37 GMT 29.298861 -80.616386 21,675 194 348 -2048
2019-11-16 17:45:31 GMT 29.309753 -80.614120 21,800 188 355 -1856
2019-11-16 17:45:28 GMT 29.314682 -80.613449 21,875 185 359 -1856
2019-11-16 17:45:23 GMT 29.321672 -80.612885 22,050 178 366 -1728
2019-11-16 17:45:20 GMT 29.326374 -80.612778 22,050 178 366 -1728
2019-11-16 17:45:17 GMT 29.332809 -80.612869 22,200 176 369 -1728
2019-11-16 17:45:14 GMT 29.338303 -80.613235 22,275 170 376 -1856
2019-11-16 17:45:10 GMT 29.344809 -80.614014 22,375 172 375 -1792
2019-11-16 17:45:06 GMT 29.350662 -80.614983 22,500 169 378 -1920
2019-11-16 17:45:00 GMT 29.368607 -80.619789 22,750 164 385 -1792
2019-11-16 17:44:56 GMT 29.368607 -80.619789 22,775 162 388 -1856
2019-11-16 17:44:49 GMT 29.384949 -80.626495 23,025 156 395 -1856
2019-11-16 17:44:46 GMT 29.384949 -80.626495 23,075 156 396 -1856
2019-11-16 17:44:42 GMT 29.392664 -80.630493 23,225 146 408 -1984
2019-11-16 17:44:38 GMT 29.398315 -80.633736 23,325 151 401 -1856
2019-11-16 17:44:35 GMT 29.404816 -80.637901 23,450 149 405 -1984
2019-11-16 17:44:26 GMT 29.416214 -80.646355 23,625 146 408 -1984
2019-11-16 17:44:23 GMT 29.420828 -80.650208 23,775 142 413 -1920
2019-11-16 17:44:18 GMT 29.430370 -80.659088 23,975 138 417 -1920
2019-11-16 17:44:14 GMT 29.436401 -80.665321 24,100 135 420 -1984
2019-11-16 17:44:07 GMT 29.444595 -80.674934 24,300 131 425 -1856
2019-11-16 17:44:02 GMT 29.450317 -80.682381 24,750 129 427 -1856
2019-11-16 17:43:56 GMT 29.458815 -80.694954 24,625 124 432 -1984
2019-11-16 17:43:53 GMT 29.462265 -80.700653 24,725 122 434 -2048
2019-11-16 17:43:49 GMT 29.466776 -80.708855 24,975 110 446 -1984
2019-11-16 17:43:46 GMT 29.469452 -80.714020 24,975 110 446 -1984
2019-11-16 17:43:39 GMT 29.476645 -80.730179 25,200 113 443 -2048
2019-11-16 17:43:33 GMT 29.480713 -80.740952 25,375 110 444 -2112
2019-11-16 17:43:30 GMT 29.482697 -80.746658 25,450 110 444 -2112
2019-11-16 17:43:24 GMT 29.486893 -80.759445 25,650 110 445 -1920
2019-11-16 17:43:21 GMT 29.490284 -80.769600 25,775 110 446 -1984
2019-11-16 17:43:14 GMT 29.494381 -80.782043 25,950 110 448 -1856
2019-11-16 17:43:10 GMT 29.497742 -80.792244 26,100 110 449 -1792
2019-11-16 17:43:04 GMT 29.502340 -80.806061 26,275 110 450 -2112
2019-11-16 17:42:59 GMT 29.506027 -80.817223 26,450 110 450 -2176
2019-11-16 17:42:54 GMT 29.509464 -80.827492 26,625 110 451 -2048
2019-11-16 17:42:48 GMT 29.517284 -80.850700 27,325 111 452 -2176
2019-11-16 17:42:44 GMT 29.517284 -80.850700 26,950 111 452 -2176
2019-11-16 17:42:37 GMT 29.521957 -80.864601 27,200 111 452 -2048
2019-11-16 17:42:30 GMT 29.530413 -80.889214 27,500 111 454 -2176
2019-11-16 17:42:27 GMT 29.530413 -80.889214 27,525 111 455 -1984
2019-11-16 17:42:20 GMT 29.534866 -80.902214 27,725 111 455 -2048
2019-11-16 17:42:17 GMT 29.537704 -80.910294 27,850 111 455 -1920
2019-11-16 17:42:12 GMT 29.541779 -80.921967 28,000 111 456 -1792
2019-11-16 17:42:07 GMT 29.546173 -80.934540 28,150 112 458 -1664
2019-11-16 17:42:03 GMT 29.549377 -80.943565 28,200 111 459 -1664
2019-11-16 17:42:00 GMT 29.550659 -80.947159 28,350 111 463 -1664
2019-11-16 17:41:54 GMT 29.555420 -80.960785 28,475 111 463 -1600
2019-11-16 17:41:49 GMT 29.559740 -80.973061 28,600 111 464 -1536
2019-11-16 17:41:46 GMT 29.562626 -80.981300 28,700 111 465 -1536
2019-11-16 17:41:40 GMT 29.567795 -80.996002 28,875 111 469 -1664
2019-11-16 17:41:35 GMT 29.571762 -81.007584 29,100 110 470 -1344
2019-11-16 17:41:31 GMT 29.574875 -81.016937 29,100 108 473 -1408
2019-11-16 17:41:23 GMT 29.579664 -81.033646 29,225 106 475 -1664
2019-11-16 17:41:18 GMT 29.582108 -81.045982 29,375 85 490 -2048
2019-11-16 17:41:14 GMT 29.583664 -81.059082 29,500 95 482 -1536
2019-11-16 17:41:11 GMT 29.584087 -81.064720 29,725 88 484 -1984
2019-11-16 17:41:05 GMT 29.584030 -81.082642 29,775 86 484 -1792
2019-11-16 17:41:01 GMT 29.583620 -81.089333 29,850 85 485 -1600
2019-11-16 17:40:58 GMT 29.583015 -81.097519 30,450 85 490 -2048
2019-11-16 17:40:52 GMT 29.581667 -81.116096 30,125 85 488 -1856
2019-11-16 17:40:47 GMT 29.581060 -81.124336 30,250 85 489 -1920
2019-11-16 17:40:41 GMT 29.579956 -81.139366 30,375 85 490 -2048
2019-11-16 17:40:37 GMT 29.579060 -81.152290 30,550 85 491 -2112
2019-11-16 17:40:32 GMT 29.578033 -81.167358 30,750 85 491 -2048
2019-11-16 17:40:26 GMT 29.577196 -81.180351 31,250 15 450 -1664
2019-11-16 17:40:20 GMT 29.576294 -81.195465 31,125 86 492 -2176
2019-11-16 17:40:16 GMT 29.575706 -81.206413 31,250 15 450 -1664
2019-11-16 17:40:11 GMT 29.574783 -81.222557 31,450 85 493 -2304
2019-11-16 17:40:08 GMT 29.574417 -81.228844 31,575 85 493 -1984
2019-11-16 17:40:05 GMT 29.573959 -81.235077 31,575 85 493 -1984
2019-11-16 17:39:57 GMT 29.571564 -81.258492 31,875 23 456 -1664
2019-11-16 17:39:49 GMT 29.567236 -81.277771 32,025 70 493 -1984
2019-11-16 17:39:46 GMT 29.565281 -81.283638 32,125 65 492 -2048
2019-11-16 17:39:37 GMT 29.555832 -81.304375 32,425 57 488 -2432
2019-11-16 17:39:33 GMT 29.550896 -81.312401 32,650 36 467 -2240
2019-11-16 17:39:28 GMT 29.542143 -81.323921 32,875 45 476 -3520
2019-11-16 17:39:23 GMT 29.536652 -81.329727 33,050 42 472 -3392
2019-11-16 17:39:15 GMT 29.520031 -81.342987 33,450 21 455 -1664
2019-11-16 17:39:11 GMT 29.515182 -81.345993 33,450 21 455 -1664
2019-11-16 17:39:07 GMT 29.496368 -81.354446 33,650 16 451 -1664
2019-11-16 17:39:03 GMT 29.483023 -81.357857 33,775 12 447 -1600
2019-11-16 17:38:56 GMT 29.483023 -81.357857 33,875 4 440 -1472
2019-11-16 17:38:53 GMT 29.478134 -81.358551 33,950 2 439 -1536
2019-11-16 17:38:50 GMT 29.473246 -81.359039 33,950 2 439 -1536
2019-11-16 17:38:45 GMT 29.452950 -81.358932 34,200 359 437 -1664
2019-11-16 17:38:39 GMT 29.450527 -81.358826 34,225 359 437 -1664
2019-11-16 17:38:34 GMT 29.437540 -81.358337 34,400 359 440 -1664
2019-11-16 17:38:30 GMT 29.431458 -81.358093 34,475 359 441 -1664
2019-11-16 17:38:23 GMT 29.414246 -81.357460 34,675 359 444 -1600
2019-11-16 17:38:20 GMT 29.410540 -81.357315 34,725 359 445 -1472
2019-11-16 17:38:13 GMT 29.395248 -81.356720 34,875 358 447 -1088
2019-11-16 17:38:10 GMT 29.391129 -81.356560 34,975 358 448 -1024
2019-11-16 17:38:07 GMT 29.382797 -81.356239 34,975 358 448 -1024
2019-11-16 17:38:01 GMT 29.362358 -81.355431 35,500 358 455 -1024
2019-11-16 17:37:58 GMT 29.362358 -81.355431 35,150 358 452 -960
2019-11-16 17:37:50 GMT 29.347687 -81.354813 35,225 358 453 -960
2019-11-16 17:37:47 GMT 29.341782 -81.354553 35,300 358 454 -1024
2019-11-16 17:37:40 GMT 29.326630 -81.353920 35,400 358 455 -1024
2019-11-16 17:37:36 GMT 29.319031 -81.353600 35,475 358 455 -1088
2019-11-16 17:37:31 GMT 29.306351 -81.353073 35,550 358 456 -1088
2019-11-16 17:37:27 GMT 29.296673 -81.352684 35,650 358 456 -1088
2019-11-16 17:37:21 GMT 29.275539 -81.351768 35,875 358 456 -1024
2019-11-16 17:37:16 GMT 29.275539 -81.351768 35,825 358 455 -896
2019-11-16 17:37:09 GMT 29.261200 -81.351120 35,900 358 453 -448
2019-11-16 17:37:05 GMT 29.252380 -81.350746 35,950 358 453 -448
2019-11-16 17:37:01 GMT 29.244003 -81.350380 35,975 358 453 -576
2019-11-16 17:36:58 GMT 29.239014 -81.350166 36,000 358 452 -1024
2019-11-16 17:36:55 GMT 29.233547 -81.349937 36,000 358 452 -896
2019-11-16 17:36:48 GMT 29.216837 -81.349236 36,425 359 452 -1152
2019-11-16 17:36:42 GMT 29.205942 -81.348747 36,200 358 451 -1024
2019-11-16 17:36:36 GMT 29.190069 -81.348106 36,325 358 452 -1152
2019-11-16 17:36:26 GMT 29.171219 -81.347420 36,550 359 452 -1152
2019-11-16 17:36:23 GMT 29.166183 -81.347214 36,525 359 452 -1152
2019-11-16 17:36:16 GMT 29.148172 -81.346542 36,675 359 453 -1024
2019-11-16 17:36:13 GMT 29.145218 -81.346420 36,700 359 453 -1024
2019-11-16 17:36:09 GMT 29.134323 -81.346046 36,750 358 453 -576
2019-11-16 17:36:06 GMT 29.128016 -81.345840 36,825 358 453 -1088
2019-11-16 17:36:02 GMT 29.122559 -81.345627 36,875 358 453 -1024
2019-11-16 17:35:59 GMT 29.112885 -81.345200 37,000 358 453 64
2019-11-16 17:35:56 GMT 29.107857 -81.345032 36,975 358 453 -320
2019-11-16 17:35:50 GMT 29.085186 -81.344063 37,000 358 453 64
2019-11-16 17:35:45 GMT 29.085186 -81.344063 37,000 358 453 0
2019-11-16 17:35:41 GMT 29.078064 -81.343781 37,000 358 453 0
2019-11-16 17:35:38 GMT 29.062563 -81.343147 37,000 358 453 0
2019-11-16 17:35:34 GMT 29.062563 -81.343147 37,000 358 453 -64
2019-11-16 17:35:31 GMT 29.056696 -81.342880 37,000 358 453 -64
2019-11-16 17:35:27 GMT 29.046595 -81.342453 37,000 358 453 -64
2019-11-16 17:35:24 GMT 29.039474 -81.342194 37,000 358 452 0
2019-11-16 17:35:17 GMT 29.027756 -81.341721 37,000 358 452 -64
2019-11-16 17:35:14 GMT 29.019781 -81.341370 37,000 358 452 0
2019-11-16 17:35:10 GMT 29.012239 -81.341049 37,000 358 452 0
2019-11-16 17:35:03 GMT 28.995527 -81.340401 37,000 358 451 0
2019-11-16 17:35:00 GMT 28.988823 -81.340134 37,000 358 451 0
2019-11-16 17:34:56 GMT 28.981281 -81.339813 37,000 358 451 0
2019-11-16 17:34:53 GMT 28.975021 -81.339554 37,000 358 451 0
2019-11-16 17:34:44 GMT 28.955841 -81.338760 37,000 358 451 0
2019-11-16 17:34:40 GMT 28.949982 -81.338493 37,000 358 451 64
2019-11-16 17:34:37 GMT 28.940781 -81.338127 37,000 358 451 64
2019-11-16 17:34:32 GMT 28.931192 -81.337708 37,000 358 451 0
2019-11-16 17:34:28 GMT 28.924488 -81.337440 37,000 358 451 0
2019-11-16 17:34:23 GMT 28.911575 -81.336914 37,000 358 451 -64
2019-11-16 17:34:19 GMT 28.907364 -81.336754 37,000 358 451 -64
2019-11-16 17:34:15 GMT 28.895691 -81.336273 37,000 358 451 -64
2019-11-16 17:34:12 GMT 28.883148 -81.335747 37,000 358 451 0
2019-11-16 17:34:08 GMT 28.883148 -81.335747 37,000 358 451 -64
2019-11-16 17:34:03 GMT 28.873560 -81.335396 37,000 358 451 0
2019-11-16 17:34:00 GMT 28.863968 -81.335007 37,000 358 451 0
2019-11-16 17:33:56 GMT 28.858524 -81.334801 37,000 358 451 0
2019-11-16 17:33:53 GMT 28.850601 -81.334480 37,000 358 451 0
2019-11-16 17:33:50 GMT 28.845163 -81.334267 37,000 358 451 0
2019-11-16 17:33:42 GMT 28.828451 -81.333618 37,000 358 451 0
2019-11-16 17:33:39 GMT 28.821350 -81.333374 37,000 358 451 0
2019-11-16 17:33:35 GMT 28.814667 -81.333107 37,000 358 451 0
2019-11-16 17:33:30 GMT 28.800892 -81.332542 37,000 358 451 0
2019-11-16 17:33:27 GMT 28.795864 -81.332329 37,000 358 451 0
2019-11-16 17:33:23 GMT 28.787933 -81.332001 37,000 358 451 64
2019-11-16 17:33:20 GMT 28.782503 -81.331787 37,000 358 451 64
2019-11-16 17:33:17 GMT 28.774172 -81.331467 37,000 358 451 64
2019-11-16 17:33:13 GMT 28.765793 -81.331139 37,000 358 451 0
2019-11-16 17:33:10 GMT 28.759926 -81.330872 37,000 358 451 0
2019-11-16 17:33:06 GMT 28.742376 -81.330170 37,000 358 451 0
2019-11-16 17:33:01 GMT 28.742376 -81.330170 37,000 358 451 0
2019-11-16 17:32:56 GMT 28.732321 -81.329796 37,000 358 451 0
2019-11-16 17:32:51 GMT 28.722313 -81.329361 37,000 358 452 0
2019-11-16 17:32:47 GMT 28.712255 -81.328987 37,000 358 452 0
2019-11-16 17:32:42 GMT 28.693823 -81.328232 37,000 358 453 0
2019-11-16 17:32:38 GMT 28.693823 -81.328232 37,000 358 453 0
2019-11-16 17:32:35 GMT 28.689194 -81.328033 37,000 358 452 0
2019-11-16 17:32:31 GMT 28.678740 -81.327637 37,000 358 453 0
2019-11-16 17:32:25 GMT 28.665710 -81.327141 37,000 358 453 0
2019-11-16 17:32:21 GMT 28.657333 -81.326820 37,000 358 453 -64
2019-11-16 17:32:18 GMT 28.650604 -81.326561 37,000 358 453 0
2019-11-16 17:32:15 GMT 28.644291 -81.326294 37,000 358 453 0
2019-11-16 17:32:09 GMT 28.633396 -81.325867 37,000 358 453 0
2019-11-16 17:32:02 GMT 28.617874 -81.325241 37,000 358 453 -64
2019-11-16 17:31:59 GMT 28.610321 -81.324921 37,000 358 453 0
2019-11-16 17:31:56 GMT 28.604860 -81.324730 37,000 358 453 0
2019-11-16 17:31:52 GMT 28.597319 -81.324409 37,000 358 453 0
2019-11-16 17:31:48 GMT 28.589310 -81.324074 37,000 358 453 0
2019-11-16 17:31:42 GMT 28.577162 -81.323601 37,000 358 453 0
2019-11-16 17:31:39 GMT 28.569620 -81.323280 37,000 358 453 -64
2019-11-16 17:31:34 GMT 28.558681 -81.322845 37,000 358 453 -64
2019-11-16 17:31:31 GMT 28.552414 -81.322594 37,000 358 453 -64
2019-11-16 17:31:27 GMT 28.538956 -81.322067 37,000 358 453 0
2019-11-16 17:31:24 GMT 28.538956 -81.322067 37,000 358 453 0
2019-11-16 17:31:21 GMT 28.532658 -81.321823 37,000 358 453 0
2019-11-16 17:31:18 GMT 28.517574 -81.321175 37,000 358 453 0
2019-11-16 17:31:14 GMT 28.517574 -81.321175 37,000 358 453 0
2019-11-16 17:31:11 GMT 28.510035 -81.320908 37,000 358 453 0
2019-11-16 17:31:06 GMT 28.501654 -81.320534 37,000 358 453 0
2019-11-16 17:31:02 GMT 28.492813 -81.320221 37,000 358 452 0
2019-11-16 17:30:58 GMT 28.483612 -81.319847 37,000 358 452 0
2019-11-16 17:30:55 GMT 28.465164 -81.319061 37,000 358 452 0
2019-11-16 17:30:49 GMT 28.465164 -81.319061 37,000 358 452 0
2019-11-16 17:30:46 GMT 28.457611 -81.318794 37,000 358 452 0
2019-11-16 17:30:43 GMT 28.451330 -81.318481 37,000 358 452 0
2019-11-16 17:30:39 GMT 28.442951 -81.318161 37,000 358 452 0
2019-11-16 17:30:36 GMT 28.439600 -81.318001 37,000 358 452 0
2019-11-16 17:30:33 GMT 28.431656 -81.317680 37,000 358 452 0
2019-11-16 17:30:30 GMT 28.417860 -81.317085 37,000 358 452 0
2019-11-16 17:30:27 GMT 28.417860 -81.317085 37,000 358 452 0
2019-11-16 17:30:24 GMT 28.413208 -81.316948 37,000 358 452 0
2019-11-16 17:30:18 GMT 28.398972 -81.316360 37,000 358 452 0
2019-11-16 17:30:15 GMT 28.395630 -81.316208 37,000 358 452 0
2019-11-16 17:30:11 GMT 28.386383 -81.315834 37,000 358 452 0
2019-11-16 17:30:04 GMT 28.371323 -81.315201 37,000 358 453 0
2019-11-16 17:30:01 GMT 28.362900 -81.314835 37,000 358 453 0
2019-11-16 17:29:57 GMT 28.354523 -81.314514 37,000 358 453 0
2019-11-16 17:29:52 GMT 28.346146 -81.314148 37,000 358 453 0
2019-11-16 17:29:49 GMT 28.339001 -81.313850 37,000 358 453 0
2019-11-16 17:29:45 GMT 28.331863 -81.313568 37,000 358 453 0
2019-11-16 17:29:42 GMT 28.323872 -81.313263 37,000 358 453 0
2019-11-16 17:29:39 GMT 28.320969 -81.313141 37,000 358 453 0
2019-11-16 17:29:36 GMT 28.311302 -81.312775 37,000 358 453 -64
2019-11-16 17:29:33 GMT 28.307112 -81.312561 37,000 358 453 -64
2019-11-16 17:29:28 GMT 28.294922 -81.312088 37,000 358 453 -64
2019-11-16 17:29:23 GMT 28.286909 -81.311752 37,000 358 453 -64
2019-11-16 17:29:20 GMT 28.278528 -81.311432 37,000 358 453 0
2019-11-16 17:29:17 GMT 28.273502 -81.311218 37,000 358 453 0
2019-11-16 17:29:14 GMT 28.264238 -81.310837 37,000 358 453 0
2019-11-16 17:29:07 GMT 28.249557 -81.310287 37,000 358 453 0
2019-11-16 17:29:02 GMT 28.239891 -81.309868 37,000 358 453 0
2019-11-16 17:28:57 GMT 28.232304 -81.309547 37,000 358 453 0
2019-11-16 17:28:53 GMT 28.220572 -81.309059 37,000 358 454 64
2019-11-16 17:28:48 GMT 28.210470 -81.308632 37,000 358 454 64
2019-11-16 17:28:45 GMT 28.205841 -81.308441 37,000 358 454 0
2019-11-16 17:28:42 GMT 28.199112 -81.308174 37,000 358 454 0
2019-11-16 17:28:38 GMT 28.184401 -81.307610 37,000 358 454 0
2019-11-16 17:28:35 GMT 28.173889 -81.307175 37,000 358 454 0
2019-11-16 17:28:31 GMT 28.173889 -81.307175 37,000 358 454 0
2019-11-16 17:28:28 GMT 28.170109 -81.307014 37,000 358 454 0
2019-11-16 17:28:25 GMT 28.161682 -81.306694 37,000 358 454 0
2019-11-16 17:28:22 GMT 28.155350 -81.306435 37,000 358 454 0
2019-11-16 17:28:16 GMT 28.144409 -81.305962 37,000 358 455 64
2019-11-16 17:28:09 GMT 28.130081 -81.305382 37,000 358 455 0
2019-11-16 17:28:06 GMT 28.114059 -81.304741 37,000 358 455 -64
2019-11-16 17:28:02 GMT 28.114059 -81.304741 37,000 358 455 -64
2019-11-16 17:27:59 GMT 28.108566 -81.304535 37,000 358 455 -64
2019-11-16 17:27:56 GMT 28.100555 -81.304214 37,000 358 455 0
2019-11-16 17:27:53 GMT 28.094650 -81.303955 37,000 358 456 0
2019-11-16 17:27:49 GMT 28.082794 -81.303528 37,000 358 456 64
2019-11-16 17:27:43 GMT 28.074770 -81.303192 37,000 358 456 0
2019-11-16 17:27:40 GMT 28.067183 -81.302864 37,000 358 456 0
2019-11-16 17:27:33 GMT 28.047318 -81.302101 37,000 358 457 0
2019-11-16 17:27:27 GMT 28.039719 -81.301842 37,000 358 457 -64
2019-11-16 17:27:24 GMT 28.032944 -81.301521 37,000 358 457 -64
2019-11-16 17:27:19 GMT 28.024475 -81.301208 37,000 358 457 -64
2019-11-16 17:27:16 GMT 28.018116 -81.300926 37,000 358 457 0
2019-11-16 17:27:12 GMT 28.007538 -81.300514 37,000 358 457 0
2019-11-16 17:27:09 GMT 28.001171 -81.300285 37,000 358 457 0
2019-11-16 17:27:06 GMT 27.996935 -81.300117 37,000 358 457 0
2019-11-16 17:27:03 GMT 27.988508 -81.299744 37,000 358 457 0
2019-11-16 17:27:00 GMT 27.975357 -81.299248 37,000 358 457 0
2019-11-16 17:26:53 GMT 27.971100 -81.299042 37,000 358 457 0
2019-11-16 17:26:49 GMT 27.960938 -81.298668 37,000 358 457 0
2019-11-16 17:26:45 GMT 27.952469 -81.298302 37,000 358 457 0
2019-11-16 17:26:41 GMT 27.941910 -81.297859 37,000 358 457 0
2019-11-16 17:26:38 GMT 27.938919 -81.297737 37,000 358 457 0
2019-11-16 17:26:32 GMT 27.925369 -81.297218 37,000 358 457 64
2019-11-16 17:26:29 GMT 27.916901 -81.296860 37,000 358 457 64
2019-11-16 17:26:25 GMT 27.910534 -81.296608 37,000 358 458 0
2019-11-16 17:26:22 GMT 27.902061 -81.296295 37,000 358 457 -64
2019-11-16 17:26:18 GMT 27.895706 -81.296028 37,000 358 457 -64
2019-11-16 17:26:14 GMT 27.885954 -81.295609 37,000 358 457 -64
2019-11-16 17:26:11 GMT 27.880463 -81.295410 37,000 358 457 -64
2019-11-16 17:26:08 GMT 27.873245 -81.295128 37,000 358 457 -64
2019-11-16 17:26:05 GMT 27.865610 -81.294815 37,000 358 457 -64
2019-11-16 17:26:01 GMT 27.858444 -81.294525 37,000 358 457 0
2019-11-16 17:25:56 GMT 27.847828 -81.294075 37,000 358 457 0
2019-11-16 17:25:53 GMT 27.842754 -81.293861 37,000 358 456 0
2019-11-16 17:25:50 GMT 27.836004 -81.293602 37,000 358 457 64
2019-11-16 17:25:47 GMT 27.830091 -81.293388 37,000 358 457 0
2019-11-16 17:25:43 GMT 27.819489 -81.292969 37,000 358 456 0
2019-11-16 17:25:37 GMT 27.807234 -81.292488 37,000 358 456 0
2019-11-16 17:25:32 GMT 27.797087 -81.292068 37,000 358 456 0
2019-11-16 17:25:29 GMT 27.791174 -81.291855 37,000 358 456 64
2019-11-16 17:25:25 GMT 27.784424 -81.291595 37,000 358 456 64
2019-11-16 17:25:22 GMT 27.775543 -81.291260 37,000 358 456 0
2019-11-16 17:25:19 GMT 27.770039 -81.291008 37,000 358 456 0
2019-11-16 17:25:16 GMT 27.762863 -81.290741 37,000 358 456 0
2019-11-16 17:25:12 GMT 27.755655 -81.290482 37,000 358 456 0
2019-11-16 17:25:09 GMT 27.746391 -81.290115 37,000 358 456 0
2019-11-16 17:25:05 GMT 27.740891 -81.289864 37,000 358 456 64
2019-11-16 17:25:01 GMT 27.731598 -81.289497 37,000 358 456 0
2019-11-16 17:24:58 GMT 27.726517 -81.289291 37,000 358 456 0
2019-11-16 17:24:55 GMT 27.717224 -81.288933 37,000 358 455 0
2019-11-16 17:24:51 GMT 27.709625 -81.288620 37,000 358 455 0
2019-11-16 17:24:48 GMT 27.694857 -81.288002 37,000 358 455 0
2019-11-16 17:24:44 GMT 27.679276 -81.287376 37,000 358 455 0
2019-11-16 17:24:37 GMT 27.679276 -81.287376 37,000 358 455 -64
2019-11-16 17:24:34 GMT 27.675064 -81.287170 37,000 358 455 -64
2019-11-16 17:24:30 GMT 27.664505 -81.286736 37,000 358 455 -64
2019-11-16 17:24:27 GMT 27.659431 -81.286522 37,000 358 455 -64
2019-11-16 17:24:24 GMT 27.652727 -81.286201 37,000 358 455 0
2019-11-16 17:24:20 GMT 27.644302 -81.285889 37,000 358 455 0
2019-11-16 17:24:16 GMT 27.629126 -81.285255 37,000 358 454 0
2019-11-16 17:24:12 GMT 27.629126 -81.285255 37,000 358 454 64
2019-11-16 17:24:08 GMT 27.615671 -81.284676 37,000 358 454 64
2019-11-16 17:24:02 GMT 27.606407 -81.284302 37,000 358 456 64
2019-11-16 17:23:59 GMT 27.599657 -81.284042 37,000 358 455 0
2019-11-16 17:23:55 GMT 27.593353 -81.283798 37,000 358 454 64
2019-11-16 17:23:52 GMT 27.586578 -81.283539 37,000 358 455 0
2019-11-16 17:23:49 GMT 27.580292 -81.283302 37,000 358 455 0
2019-11-16 17:23:45 GMT 27.571865 -81.282982 37,000 358 456 0
2019-11-16 17:23:42 GMT 27.564697 -81.282661 37,000 358 455 -64
2019-11-16 17:23:39 GMT 27.557968 -81.282402 37,000 358 455 -64
2019-11-16 17:23:35 GMT 27.549940 -81.282082 37,000 358 456 0
2019-11-16 17:23:32 GMT 27.545752 -81.281929 37,000 358 456 64
2019-11-16 17:23:28 GMT 27.536865 -81.281570 37,000 358 454 0
2019-11-16 17:23:25 GMT 27.524662 -81.281082 37,000 358 455 0
2019-11-16 17:23:22 GMT 27.524662 -81.281082 37,000 358 455 64
2019-11-16 17:23:19 GMT 27.516678 -81.280792 37,000 358 455 0
2019-11-16 17:23:16 GMT 27.509903 -81.280533 37,000 358 455 0
2019-11-16 17:23:13 GMT 27.504459 -81.280289 37,000 358 456 0
2019-11-16 17:23:10 GMT 27.493471 -81.279869 37,000 358 455 0
2019-11-16 17:23:07 GMT 27.493471 -81.279869 37,000 358 455 0
2019-11-16 17:23:04 GMT 27.485504 -81.279549 37,000 358 455 0
2019-11-16 17:23:01 GMT 27.470755 -81.278969 37,000 358 455 0
2019-11-16 17:22:58 GMT 27.470755 -81.278969 37,000 358 455 0
2019-11-16 17:22:54 GMT 27.463577 -81.278671 37,000 358 455 0
2019-11-16 17:22:51 GMT 27.458542 -81.278465 37,000 358 455 0
2019-11-16 17:22:47 GMT 27.447990 -81.278069 37,000 358 456 0
2019-11-16 17:22:43 GMT 27.440826 -81.277786 37,000 358 455 0
2019-11-16 17:22:40 GMT 27.435745 -81.277580 37,000 358 455 0
2019-11-16 17:22:37 GMT 27.427322 -81.277267 37,000 359 455 0
2019-11-16 17:22:34 GMT 27.415077 -81.276802 37,000 359 455 0
2019-11-16 17:22:31 GMT 27.406219 -81.276489 37,000 358 456 0
2019-11-16 17:22:26 GMT 27.406219 -81.276489 37,000 358 456 0
2019-11-16 17:22:23 GMT 27.399857 -81.276222 37,000 358 456 0
2019-11-16 17:22:20 GMT 27.393944 -81.276009 37,000 358 456 0
2019-11-16 17:22:16 GMT 27.383003 -81.275589 37,000 358 456 0
2019-11-16 17:22:13 GMT 27.376648 -81.275299 37,000 358 456 0
2019-11-16 17:22:09 GMT 27.370743 -81.275093 37,000 358 456 0
2019-11-16 17:22:05 GMT 27.361031 -81.274689 37,000 358 456 -64
2019-11-16 17:22:00 GMT 27.350464 -81.274261 37,000 358 456 0
2019-11-16 17:21:54 GMT 27.337336 -81.273743 37,000 358 456 0
2019-11-16 17:21:50 GMT 27.328072 -81.273369 37,000 358 456 0
2019-11-16 17:21:47 GMT 27.315363 -81.272842 37,000 358 456 64
2019-11-16 17:21:43 GMT 27.315363 -81.272842 37,000 358 456 0
2019-11-16 17:21:40 GMT 27.307775 -81.272575 37,000 358 456 0
2019-11-16 17:21:34 GMT 27.293793 -81.271980 37,000 358 456 64
2019-11-16 17:21:29 GMT 27.283676 -81.271622 37,000 358 457 0
2019-11-16 17:21:25 GMT 27.277725 -81.271362 37,000 358 457 0
2019-11-16 17:21:22 GMT 27.271820 -81.271103 37,000 358 457 0
2019-11-16 17:21:18 GMT 27.262482 -81.270737 37,000 358 457 0
2019-11-16 17:21:14 GMT 27.255310 -81.270409 37,000 358 457 -64
2019-11-16 17:21:11 GMT 27.246414 -81.270065 37,000 358 457 -64
2019-11-16 17:21:07 GMT 27.237076 -81.269707 37,000 358 457 0
2019-11-16 17:21:03 GMT 27.227737 -81.269287 37,000 358 458 0
2019-11-16 17:21:00 GMT 27.222656 -81.269081 37,000 358 458 0
2019-11-16 17:20:57 GMT 27.217575 -81.268875 37,000 358 458 0
2019-11-16 17:20:53 GMT 27.210342 -81.268616 37,000 358 458 0
2019-11-16 17:20:50 GMT 27.200592 -81.268204 37,000 358 458 0
2019-11-16 17:20:47 GMT 27.194641 -81.267944 37,000 358 458 0
2019-11-16 17:20:44 GMT 27.188276 -81.267715 37,000 358 458 0
2019-11-16 17:20:39 GMT 27.177242 -81.267242 37,000 358 459 0
2019-11-16 17:20:36 GMT 27.173845 -81.267136 37,000 358 459 0
2019-11-16 17:20:31 GMT 27.162369 -81.266647 37,000 358 459 0
2019-11-16 17:20:26 GMT 27.150009 -81.266136 37,000 358 459 0
2019-11-16 17:20:21 GMT 27.139814 -81.265709 37,000 358 459 0
2019-11-16 17:20:18 GMT 27.126617 -81.265198 37,000 358 459 0
2019-11-16 17:20:15 GMT 27.126617 -81.265198 37,000 358 459 0
2019-11-16 17:20:11 GMT 27.121054 -81.264969 37,000 358 460 0
2019-11-16 17:20:08 GMT 27.113420 -81.264656 37,000 358 459 0
2019-11-16 17:20:05 GMT 27.107025 -81.264366 37,000 358 460 0
2019-11-16 17:20:02 GMT 27.098511 -81.264008 37,000 358 460 0
2019-11-16 17:19:57 GMT 27.090424 -81.263702 37,000 358 460 64
2019-11-16 17:19:54 GMT 27.081903 -81.263336 37,000 359 460 0
2019-11-16 17:19:49 GMT 27.071663 -81.262962 37,000 359 460 0
2019-11-16 17:19:46 GMT 27.067381 -81.262756 37,000 359 460 0
2019-11-16 17:19:43 GMT 27.059280 -81.262451 37,000 359 461 -64
2019-11-16 17:19:40 GMT 27.051132 -81.262115 37,000 359 461 -64
2019-11-16 17:19:37 GMT 27.046059 -81.261909 37,000 358 461 0
2019-11-16 17:19:34 GMT 27.039642 -81.261673 37,000 358 461 0
2019-11-16 17:19:29 GMT 27.031534 -81.261330 37,000 358 461 0
2019-11-16 17:19:26 GMT 27.021294 -81.260956 37,000 358 461 0
2019-11-16 17:19:23 GMT 27.017441 -81.260788 37,000 358 461 64
2019-11-16 17:19:20 GMT 27.009750 -81.260483 37,000 358 461 0
2019-11-16 17:19:17 GMT 26.996933 -81.259964 37,000 358 461 0
2019-11-16 17:19:14 GMT 26.996933 -81.259964 37,000 359 461 64
2019-11-16 17:19:10 GMT 26.987963 -81.259583 37,000 358 461 64
2019-11-16 17:19:04 GMT 26.974731 -81.259079 37,000 358 461 64
2019-11-16 17:19:01 GMT 26.968317 -81.258842 37,000 359 461 0
2019-11-16 17:18:58 GMT 26.961914 -81.258560 37,000 359 461 0
2019-11-16 17:18:55 GMT 26.957191 -81.258369 37,000 359 462 0
2019-11-16 17:18:52 GMT 26.949097 -81.258041 37,000 359 462 0
2019-11-16 17:18:48 GMT 26.942230 -81.257782 37,000 359 462 0
2019-11-16 17:18:45 GMT 26.928143 -81.257263 37,000 358 462 0
2019-11-16 17:18:41 GMT 26.928143 -81.257263 37,000 359 462 -64
2019-11-16 17:18:38 GMT 26.919577 -81.256889 37,000 358 462 0
2019-11-16 17:18:34 GMT 26.906296 -81.256386 37,000 358 462 0
2019-11-16 17:18:31 GMT 26.897278 -81.255989 37,000 358 462 0
2019-11-16 17:18:27 GMT 26.897278 -81.255989 37,000 358 462 0
2019-11-16 17:18:24 GMT 26.890869 -81.255760 37,000 358 462 0
2019-11-16 17:18:20 GMT 26.875027 -81.255150 37,000 358 462 0
2019-11-16 17:18:17 GMT 26.875027 -81.255150 37,000 358 462 0
2019-11-16 17:18:13 GMT 26.868622 -81.254883 37,000 358 462 0
2019-11-16 17:18:09 GMT 26.858322 -81.254417 37,000 358 462 0
2019-11-16 17:18:06 GMT 26.850632 -81.254105 37,000 358 462 0
2019-11-16 17:18:03 GMT 26.847198 -81.254005 37,000 358 462 0
2019-11-16 17:17:59 GMT 26.837769 -81.253586 37,000 358 462 0
2019-11-16 17:17:56 GMT 26.829638 -81.253242 37,000 358 462 0
2019-11-16 17:17:53 GMT 26.825308 -81.253090 37,000 358 463 0
2019-11-16 17:17:50 GMT 26.813736 -81.252655 37,000 358 463 0
2019-11-16 17:17:44 GMT 26.803482 -81.252243 37,000 358 463 0
2019-11-16 17:17:41 GMT 26.799610 -81.252083 37,000 358 463 64
2019-11-16 17:17:38 GMT 26.791883 -81.251762 37,000 358 463 0
2019-11-16 17:17:35 GMT 26.784994 -81.251503 37,000 358 463 0
2019-11-16 17:17:32 GMT 26.780710 -81.251289 37,000 358 463 0
2019-11-16 17:17:28 GMT 26.769150 -81.250839 37,000 358 463 64
2019-11-16 17:17:24 GMT 26.762695 -81.250603 37,000 358 463 64
2019-11-16 17:17:21 GMT 26.754547 -81.250275 37,000 359 464 0
2019-11-16 17:17:17 GMT 26.745941 -81.249962 37,000 359 464 0
2019-11-16 17:17:14 GMT 26.739075 -81.249649 37,000 359 464 0
2019-11-16 17:17:11 GMT 26.724895 -81.249123 37,000 359 464 0
2019-11-16 17:17:07 GMT 26.724895 -81.249123 37,000 359 464 -64
2019-11-16 17:17:04 GMT 26.717121 -81.248863 37,000 359 464 -64
2019-11-16 17:17:01 GMT 26.702503 -81.248283 37,000 359 464 0
2019-11-16 17:16:56 GMT 26.702503 -81.248283 37,000 359 464 -64
2019-11-16 17:16:53 GMT 26.690918 -81.247887 37,000 359 464 -64
2019-11-16 17:16:47 GMT 26.681442 -81.247520 37,025 359 464 0
2019-11-16 17:16:43 GMT 26.672836 -81.247215 37,000 359 464 0
2019-11-16 17:16:40 GMT 26.669403 -81.247108 37,000 359 464 0
2019-11-16 17:16:36 GMT 26.658651 -81.246696 37,000 359 464 0
2019-11-16 17:16:30 GMT 26.646194 -81.246231 37,000 358 464 64
2019-11-16 17:16:27 GMT 26.638912 -81.245903 37,000 358 464 64
2019-11-16 17:16:23 GMT 26.629463 -81.245537 37,000 358 464 64
2019-11-16 17:16:19 GMT 26.620852 -81.245216 37,000 358 464 0
2019-11-16 17:16:15 GMT 26.615250 -81.244987 37,000 358 463 0
2019-11-16 17:16:11 GMT 26.604511 -81.244530 37,000 358 463 0
2019-11-16 17:16:08 GMT 26.600647 -81.244415 37,000 358 463 0
2019-11-16 17:16:05 GMT 26.593781 -81.244102 37,000 358 463 0
2019-11-16 17:16:02 GMT 26.587784 -81.243896 37,000 358 463 0
2019-11-16 17:15:59 GMT 26.577484 -81.243431 37,000 358 463 0
2019-11-16 17:15:54 GMT 26.567595 -81.243050 37,000 358 463 0
2019-11-16 17:15:50 GMT 26.559029 -81.242737 37,000 359 463 -64
2019-11-16 17:15:42 GMT 26.541851 -81.242050 37,000 359 463 0
2019-11-16 17:15:38 GMT 26.534170 -81.241730 37,000 359 462 0
2019-11-16 17:15:35 GMT 26.527281 -81.241470 37,000 359 462 0
2019-11-16 17:15:31 GMT 26.518715 -81.241150 37,000 359 462 0
2019-11-16 17:15:28 GMT 26.513594 -81.240936 37,000 359 462 0
2019-11-16 17:15:24 GMT 26.504190 -81.240570 37,000 359 462 0
2019-11-16 17:15:21 GMT 26.496918 -81.240318 37,000 358 462 0
2019-11-16 17:15:17 GMT 26.488358 -81.239960 37,000 358 462 -64
2019-11-16 17:15:14 GMT 26.482777 -81.239723 37,000 358 461 -64
2019-11-16 17:15:11 GMT 26.477234 -81.239494 37,000 358 461 0
2019-11-16 17:15:08 GMT 26.469929 -81.239250 37,000 358 461 0
2019-11-16 17:15:05 GMT 26.465693 -81.239037 37,000 358 461 0
2019-11-16 17:15:02 GMT 26.451120 -81.238457 37,000 358 461 0
2019-11-16 17:14:56 GMT 26.443909 -81.238197 37,000 358 461 0
2019-11-16 17:14:51 GMT 26.433199 -81.237770 37,000 359 461 0
2019-11-16 17:14:48 GMT 26.427658 -81.237518 37,000 359 460 0
2019-11-16 17:14:45 GMT 26.421707 -81.237312 37,000 359 460 0
2019-11-16 17:14:41 GMT 26.410583 -81.236900 37,000 359 460 0
2019-11-16 17:14:38 GMT 26.407196 -81.236748 37,000 359 460 0
2019-11-16 17:14:35 GMT 26.399076 -81.236450 37,000 359 459 64
2019-11-16 17:14:29 GMT 26.387157 -81.236023 37,000 359 459 64
2019-11-16 17:14:26 GMT 26.378639 -81.235657 37,000 359 459 64
2019-11-16 17:14:20 GMT 26.366722 -81.235237 37,000 359 459 0
2019-11-16 17:14:17 GMT 26.360764 -81.235023 37,000 359 459 64
2019-11-16 17:14:14 GMT 26.343338 -81.234306 37,000 359 459 64
2019-11-16 17:14:09 GMT 26.343338 -81.234306 37,000 359 459 64
2019-11-16 17:14:06 GMT 26.338257 -81.234154 37,000 359 459 64
2019-11-16 17:14:03 GMT 26.331854 -81.233917 37,000 359 459 0
2019-11-16 17:13:59 GMT 26.322496 -81.233543 37,000 359 459 -128
2019-11-16 17:13:56 GMT 26.318260 -81.233383 37,000 359 459 -128
2019-11-16 17:13:53 GMT 26.309326 -81.233017 37,000 359 459 -64
2019-11-16 17:13:50 GMT 26.296148 -81.232536 37,000 358 458 0
2019-11-16 17:13:46 GMT 26.296148 -81.232536 37,000 358 458 64
2019-11-16 17:13:43 GMT 26.290190 -81.232330 37,000 358 458 64
2019-11-16 17:13:40 GMT 26.281717 -81.232010 37,000 358 458 64
2019-11-16 17:13:37 GMT 26.277878 -81.231873 37,000 358 458 -64
2019-11-16 17:13:34 GMT 26.269363 -81.231514 37,000 358 458 -64
2019-11-16 17:13:31 GMT 26.263004 -81.231270 37,000 358 458 -64
2019-11-16 17:13:27 GMT 26.254074 -81.230888 37,000 358 458 -64
2019-11-16 17:13:23 GMT 26.244736 -81.230530 37,000 358 458 0
2019-11-16 17:13:16 GMT 26.232010 -81.230057 37,000 358 458 0
2019-11-16 17:13:12 GMT 26.224365 -81.229752 37,000 358 458 0
2019-11-16 17:13:09 GMT 26.210306 -81.229156 37,000 358 458 0
2019-11-16 17:13:06 GMT 26.202671 -81.228897 37,000 358 458 0
2019-11-16 17:13:03 GMT 26.202671 -81.228897 37,000 358 458 0
2019-11-16 17:12:57 GMT 26.192917 -81.228455 37,000 358 458 0
2019-11-16 17:12:54 GMT 26.185272 -81.228142 37,000 358 458 0
2019-11-16 17:12:51 GMT 26.171677 -81.227623 37,000 358 458 0
2019-11-16 17:12:48 GMT 26.171677 -81.227623 37,000 358 458 0
2019-11-16 17:12:44 GMT 26.164032 -81.227310 37,000 358 458 0
2019-11-16 17:12:40 GMT 26.156387 -81.227005 37,000 358 458 0
2019-11-16 17:12:37 GMT 26.149567 -81.226746 37,000 358 458 0
2019-11-16 17:12:31 GMT 26.134706 -81.226151 37,000 358 458 -64
2019-11-16 17:12:27 GMT 26.126633 -81.225807 37,000 358 458 -64
2019-11-16 17:12:22 GMT 26.111801 -81.225250 37,000 358 458 0
2019-11-16 17:12:15 GMT 26.104120 -81.224937 37,000 358 458 64
2019-11-16 17:12:12 GMT 26.098209 -81.224724 37,000 358 458 64
2019-11-16 17:12:08 GMT 26.073584 -81.223717 37,000 358 458 0
2019-11-16 17:12:02 GMT 26.073584 -81.223717 37,000 358 458 0
2019-11-16 17:11:57 GMT 26.053619 -81.222961 37,000 358 458 0
2019-11-16 17:11:52 GMT 26.053619 -81.222961 37,000 358 458 0
2019-11-16 17:11:49 GMT 26.045559 -81.222610 37,000 358 458 0
2019-11-16 17:11:46 GMT 26.040848 -81.222443 37,000 358 458 0
2019-11-16 17:11:42 GMT 26.031509 -81.222076 37,000 358 458 0
2019-11-16 17:11:37 GMT 26.020477 -81.221664 37,000 358 458 0
2019-11-16 17:11:34 GMT 26.013702 -81.221405 37,000 358 458 0
2019-11-16 17:11:29 GMT 26.003895 -81.221024 37,000 358 458 0
2019-11-16 17:11:25 GMT 25.996674 -81.220734 37,000 359 459 0
2019-11-16 17:11:21 GMT 25.985641 -81.220268 37,000 359 459 0
2019-11-16 17:11:18 GMT 25.981384 -81.220108 37,000 359 459 0
2019-11-16 17:11:14 GMT 25.971586 -81.219757 37,000 359 459 0
2019-11-16 17:11:08 GMT 25.960554 -81.219337 37,000 359 459 0
2019-11-16 17:11:05 GMT 25.952873 -81.219017 37,000 359 459 0
2019-11-16 17:11:02 GMT 25.948635 -81.218857 37,000 359 459 0
2019-11-16 17:10:57 GMT 25.936295 -81.218346 37,000 359 459 0
2019-11-16 17:10:53 GMT 25.928200 -81.218071 37,000 359 460 0
2019-11-16 17:10:46 GMT 25.913721 -81.217484 37,000 359 460 -128
2019-11-16 17:10:43 GMT 25.904755 -81.217155 37,025 359 459 -64
2019-11-16 17:10:37 GMT 25.892853 -81.216690 37,025 359 459 320
2019-11-16 17:10:34 GMT 25.886032 -81.216431 36,975 359 459 832
2019-11-16 17:10:29 GMT 25.875410 -81.216064 36,925 359 459 896
2019-11-16 17:10:26 GMT 25.871126 -81.215904 36,850 359 460 832
2019-11-16 17:10:22 GMT 25.860489 -81.215500 36,825 359 460 768
2019-11-16 17:10:18 GMT 25.853668 -81.215240 36,775 359 460 704
2019-11-16 17:10:15 GMT 25.847717 -81.215034 36,775 359 460 704
2019-11-16 17:10:11 GMT 25.828531 -81.214256 36,675 358 460 960
2019-11-16 17:10:07 GMT 25.821688 -81.213997 36,625 358 460 960
2019-11-16 17:10:03 GMT 25.821688 -81.213997 36,575 358 460 960
2019-11-16 17:10:00 GMT 25.815262 -81.213737 36,525 358 461 896
2019-11-16 17:09:56 GMT 25.808441 -81.213478 36,475 358 461 896
2019-11-16 17:09:53 GMT 25.801620 -81.213173 36,450 358 461 960
2019-11-16 17:09:50 GMT 25.794315 -81.212906 36,425 358 462 960
2019-11-16 17:09:46 GMT 25.784075 -81.212494 36,300 358 463 1024
2019-11-16 17:09:42 GMT 25.770767 -81.211952 36,225 358 463 1024
2019-11-16 17:09:33 GMT 25.758682 -81.211494 36,125 358 465 1152
2019-11-16 17:09:29 GMT 25.750076 -81.211143 35,950 359 466 1280
2019-11-16 17:09:24 GMT 25.737991 -81.210686 35,925 359 467 1408
2019-11-16 17:09:21 GMT 25.731949 -81.210480 35,850 359 467 1408
2019-11-16 17:09:18 GMT 25.726730 -81.210274 35,800 359 469 1344
2019-11-16 17:09:14 GMT 25.716761 -81.209900 35,700 359 469 1408
2019-11-16 17:09:09 GMT 25.704117 -81.209465 35,575 359 471 1664
2019-11-16 17:09:04 GMT 25.695374 -81.209106 35,450 359 472 1536
2019-11-16 17:09:01 GMT 25.685760 -81.208748 35,350 359 473 1408
2019-11-16 17:08:52 GMT 25.659393 -81.207787 35,150 358 475 1088
2019-11-16 17:08:48 GMT 25.659393 -81.207787 35,100 359 475 768
2019-11-16 17:08:42 GMT 25.635155 -81.206841 34,975 358 475 704
2019-11-16 17:08:37 GMT 25.635155 -81.206841 34,950 359 475 768
2019-11-16 17:08:31 GMT 25.620165 -81.206276 34,875 359 475 960
2019-11-16 17:08:26 GMT 25.609596 -81.205856 34,800 359 475 896
2019-11-16 17:08:22 GMT 25.602568 -81.205597 34,750 359 475 832
2019-11-16 17:08:19 GMT 25.594652 -81.205338 34,700 358 475 640
2019-11-16 17:08:16 GMT 25.588028 -81.205040 34,675 358 475 640
2019-11-16 17:08:11 GMT 25.579662 -81.204720 34,625 358 474 640
2019-11-16 17:08:07 GMT 25.570450 -81.204376 34,600 358 474 576
2019-11-16 17:08:02 GMT 25.556852 -81.203835 34,500 358 472 512
2019-11-16 17:07:59 GMT 25.551132 -81.203560 34,500 358 472 512
2019-11-16 17:07:53 GMT 25.539349 -81.203110 34,475 358 471 512
2019-11-16 17:07:48 GMT 25.529297 -81.202698 34,425 358 470 576
2019-11-16 17:07:45 GMT 25.519285 -81.202286 34,375 358 469 512
2019-11-16 17:07:40 GMT 25.508858 -81.201866 34,350 358 468 576
2019-11-16 17:07:35 GMT 25.498856 -81.201424 34,150 358 468 1408
2019-11-16 17:07:28 GMT 25.485855 -81.200920 34,200 358 468 1408
2019-11-16 17:07:24 GMT 25.473724 -81.200409 34,075 358 469 960
2019-11-16 17:07:19 GMT 25.463701 -81.200058 34,025 358 469 256
2019-11-16 17:07:16 GMT 25.456764 -81.199799 34,000 359 469 0
2019-11-16 17:07:12 GMT 25.450666 -81.199539 34,000 359 469 0
2019-11-16 17:07:08 GMT 25.442007 -81.199226 34,000 359 469 0
2019-11-16 17:07:03 GMT 25.428089 -81.198708 34,000 359 469 0
2019-11-16 17:06:58 GMT 25.418499 -81.198341 34,000 359 469 0
2019-11-16 17:06:54 GMT 25.409794 -81.198036 34,000 359 469 0
2019-11-16 17:06:47 GMT 25.394577 -81.197456 34,000 359 469 0
2019-11-16 17:06:42 GMT 25.371094 -81.196541 34,000 358 469 0
2019-11-16 17:06:38 GMT 25.371094 -81.196541 34,000 358 469 0
2019-11-16 17:06:34 GMT 25.365005 -81.196289 34,000 359 470 0
2019-11-16 17:06:31 GMT 25.360657 -81.196136 34,000 358 469 0
2019-11-16 17:06:28 GMT 25.342806 -81.195442 34,000 359 470 0
2019-11-16 17:06:23 GMT 25.342806 -81.195442 34,000 359 470 0
2019-11-16 17:06:20 GMT 25.335434 -81.195168 34,000 359 470 0
2019-11-16 17:06:16 GMT 25.327560 -81.194862 34,000 359 470 0
2019-11-16 17:06:12 GMT 25.318863 -81.194557 34,000 359 470 0
2019-11-16 17:06:09 GMT 25.310165 -81.194206 34,000 359 470 0
2019-11-16 17:06:04 GMT 25.301886 -81.193886 34,000 359 470 0
2019-11-16 17:06:00 GMT 25.294464 -81.193642 34,000 359 470 0
2019-11-16 17:05:55 GMT 25.282707 -81.193161 34,000 359 471 0
2019-11-16 17:05:52 GMT 25.273544 -81.192833 34,000 359 471 0
2019-11-16 17:05:47 GMT 25.263479 -81.192490 34,000 359 471 -64
2019-11-16 17:05:44 GMT 25.259151 -81.192284 34,000 359 471 -64
2019-11-16 17:05:40 GMT 25.250399 -81.191971 34,000 359 471 -64
2019-11-16 17:05:34 GMT 25.237747 -81.191505 34,000 359 471 0
2019-11-16 17:05:31 GMT 25.228565 -81.191139 34,000 359 470 64
2019-11-16 17:05:28 GMT 25.220745 -81.190880 34,000 359 470 0
2019-11-16 17:05:24 GMT 25.198959 -81.190056 34,000 359 470 64
2019-11-16 17:05:17 GMT 25.191559 -81.189728 34,000 359 469 0
2019-11-16 17:05:10 GMT 25.181549 -81.189377 34,000 358 469 0
2019-11-16 17:05:07 GMT 25.175034 -81.189117 34,000 359 469 0
2019-11-16 17:05:04 GMT 25.168945 -81.188866 34,000 358 469 0
2019-11-16 17:04:59 GMT 25.159809 -81.188553 34,000 358 469 0
2019-11-16 17:04:55 GMT 25.152826 -81.188240 34,000 358 469 0
2019-11-16 17:04:52 GMT 25.145889 -81.187981 34,000 358 469 0
2019-11-16 17:04:49 GMT 25.137184 -81.187668 34,000 358 468 0
2019-11-16 17:04:46 GMT 25.131132 -81.187408 34,000 358 468 0
2019-11-16 17:04:43 GMT 25.122849 -81.187080 34,000 358 468 0
2019-11-16 17:04:35 GMT 25.108555 -81.186531 34,000 358 468 0
2019-11-16 17:04:32 GMT 25.101618 -81.186272 34,000 358 468 0
2019-11-16 17:04:25 GMT 25.085138 -81.185593 34,000 358 468 0
2019-11-16 17:04:22 GMT 25.077759 -81.185303 34,000 358 468 0
2019-11-16 17:04:17 GMT 25.068613 -81.184975 34,000 358 468 0
2019-11-16 17:04:11 GMT 25.055626 -81.184456 34,000 358 468 0
2019-11-16 17:04:07 GMT 25.046082 -81.184044 34,000 358 468 0
2019-11-16 17:04:04 GMT 25.038712 -81.183777 34,000 358 468 0
2019-11-16 17:04:00 GMT 25.033493 -81.183525 34,000 358 468 0
2019-11-16 17:03:55 GMT 25.022232 -81.183113 34,000 358 468 0
2019-11-16 17:03:50 GMT 25.010515 -81.182640 34,000 358 468 0
2019-11-16 17:03:45 GMT 24.997925 -81.182152 34,000 358 469 0
2019-11-16 17:03:39 GMT 24.987488 -81.181740 34,000 358 469 64
2019-11-16 17:03:33 GMT 24.974857 -81.181244 34,000 358 469 0
2019-11-16 17:03:28 GMT 24.960052 -81.180672 34,000 358 469 0
2019-11-16 17:03:25 GMT 24.953955 -81.180412 34,000 358 470 0
2019-11-16 17:03:19 GMT 24.942642 -81.180000 34,000 359 470 0
2019-11-16 17:03:09 GMT 24.919556 -81.179100 34,000 359 470 0
2019-11-16 17:03:04 GMT 24.907822 -81.178703 34,000 359 470 0
2019-11-16 17:02:57 GMT 24.895624 -81.178238 34,000 359 470 0
2019-11-16 17:02:48 GMT 24.872953 -81.177406 34,000 359 470 0
2019-11-16 17:02:42 GMT 24.860321 -81.176964 34,000 359 470 0
2019-11-16 17:02:39 GMT 24.855103 -81.176758 34,000 359 470 0
2019-11-16 17:02:32 GMT 24.840271 -81.176201 34,000 359 470 0
2019-11-16 17:02:26 GMT 24.825485 -81.175636 34,000 359 470 0
2019-11-16 17:02:21 GMT 24.815462 -81.175285 34,000 359 470 0
2019-11-16 17:02:17 GMT 24.806709 -81.174919 34,000 359 470 -64
2019-11-16 17:02:11 GMT 24.794514 -81.174454 34,000 359 470 0
2019-11-16 17:02:05 GMT 24.781036 -81.173958 34,000 359 470 0
2019-11-16 17:02:01 GMT 24.771423 -81.173607 34,000 359 470 -64
2019-11-16 17:01:55 GMT 24.760117 -81.173195 34,025 359 469 64
2019-11-16 17:01:49 GMT 24.746611 -81.172691 34,000 359 469 64
2019-11-16 17:01:46 GMT 24.738791 -81.172379 34,000 359 469 -64
2019-11-16 17:01:40 GMT 24.726595 -81.171913 34,025 359 469 -128
2019-11-16 17:01:34 GMT 24.714443 -81.171448 34,025 359 468 576
2019-11-16 17:01:29 GMT 24.703178 -81.171036 33,950 359 467 960
2019-11-16 17:01:23 GMT 24.688421 -81.170464 33,850 359 467 960
2019-11-16 17:01:19 GMT 24.680647 -81.170151 33,800 359 467 1024
2019-11-16 17:01:13 GMT 24.668495 -81.169739 33,700 359 467 1024
2019-11-16 17:01:07 GMT 24.657276 -81.169273 33,625 359 467 1024
2019-11-16 17:01:02 GMT 24.642975 -81.168724 33,525 359 467 1024
2019-11-16 17:00:57 GMT 24.633453 -81.168365 33,450 359 467 960
2019-11-16 17:00:53 GMT 24.625250 -81.168083 33,350 359 466 1216
2019-11-16 17:00:46 GMT 24.611847 -81.167549 33,250 358 467 1600
2019-11-16 17:00:42 GMT 24.599274 -81.167099 33,100 358 468 576
2019-11-16 17:00:37 GMT 24.588409 -81.166634 33,025 358 468 256
2019-11-16 17:00:31 GMT 24.578018 -81.166229 33,000 358 468 -64
2019-11-16 17:00:26 GMT 24.567581 -81.165825 33,000 359 468 0
2019-11-16 17:00:20 GMT 24.555450 -81.165367 33,000 359 468 0
2019-11-16 17:00:16 GMT 24.544621 -81.164970 33,000 359 468 0
2019-11-16 17:00:10 GMT 24.531143 -81.164497 33,000 359 468 0
2019-11-16 17:00:04 GMT 24.521206 -81.164093 33,000 359 467 0
2019-11-16 16:59:58 GMT 24.508169 -81.163628 33,000 359 467 0
2019-11-16 16:59:54 GMT 24.496904 -81.163208 33,000 359 467 0
2019-11-16 16:59:48 GMT 24.485229 -81.162773 33,000 359 467 0
2019-11-16 16:59:42 GMT 24.473099 -81.162361 33,000 359 467 0
2019-11-16 16:59:39 GMT 24.464039 -81.162018 33,000 359 466 0
2019-11-16 16:59:33 GMT 24.453232 -81.161598 33,000 359 466 0
2019-11-16 16:59:27 GMT 24.440277 -81.161095 33,000 358 466 0
2019-11-16 16:59:22 GMT 24.426006 -81.160515 33,000 359 466 0
2019-11-16 16:59:18 GMT 24.417801 -81.160225 33,000 359 466 64
2019-11-16 16:59:06 GMT 24.394024 -81.159325 33,000 359 466 0
2019-11-16 16:58:57 GMT 24.372423 -81.158493 33,000 359 466 0
2019-11-16 16:58:44 GMT 24.347809 -81.157585 33,000 359 466 0
2019-11-16 16:58:36 GMT 24.327501 -81.156784 33,000 359 466 0
2019-11-16 16:58:24 GMT 24.302856 -81.155853 33,000 359 466 0
2019-11-16 16:58:14 GMT 24.279510 -81.154991 33,000 359 467 0
2019-11-16 16:58:04 GMT 24.258728 -81.154228 33,000 359 467 0
2019-11-16 16:57:52 GMT 24.235792 -81.153366 33,000 359 467 0
2019-11-16 16:57:42 GMT 24.211075 -81.152397 33,000 359 467 -64
2019-11-16 16:57:30 GMT 24.188124 -81.151550 33,000 359 467 0
2019-11-16 16:57:20 GMT 24.166031 -81.150665 33,000 358 468 0
2019-11-16 16:57:11 GMT 24.143900 -81.149841 33,025 358 467 -64
2019-11-16 16:56:59 GMT 24.120117 -81.148888 32,950 358 466 1024
2019-11-16 16:56:48 GMT 24.095486 -81.147919 32,775 358 466 1024
2019-11-16 16:56:39 GMT 24.075165 -81.147156 32,625 359 465 1024
2019-11-16 16:56:26 GMT 24.049301 -81.146187 32,425 359 465 960
2019-11-16 16:56:20 GMT 24.033783 -81.145576 32,225 359 464 960
2019-11-16 16:56:12 GMT 24.016617 -81.144966 32,225 359 464 960
2019-11-16 16:56:08 GMT 24.010992 -81.144814 32,150 359 463 832
2019-11-16 16:55:55 GMT 23.980545 -81.143799 31,950 359 461 1024
2019-11-16 16:55:45 GMT 23.960484 -81.143204 31,750 359 461 1472
2019-11-16 16:55:42 GMT 23.953640 -81.142998 31,675 358 462 1664
2019-11-16 16:55:36 GMT 23.940792 -81.142586 31,525 358 461 1664
2019-11-16 16:55:33 GMT 23.931839 -81.141869 31,400 355 458 1664
2019-11-16 16:55:22 GMT 23.910965 -81.138359 31,125 342 446 1792
2019-11-16 16:55:14 GMT 23.896408 -81.134285 30,925 343 447 1792
2019-11-16 16:55:11 GMT 23.888187 -81.131287 30,800 341 445 1792
2019-11-16 16:55:05 GMT 23.875944 -81.125946 30,625 335 441 1856
2019-11-16 16:54:54 GMT 23.858534 -81.116158 29,525 326 434 1920
2019-11-16 16:54:24 GMT 23.807699 -81.075836 29,525 324 436 1472
2019-11-16 16:54:20 GMT 23.802532 -81.071640 29,450 324 436 1472
2019-11-16 16:53:34 GMT 23.726837 -81.009918 28,675 324 433 832

Making use of Plane Finder data

You are free to use the raw flight data, aircraft information and images provided in this report for your own purposes provided the data is correctly attributed to Plane Finder. We ask that you please credit Plane Finder and link to planefinder.net in close proximity to the content.

Optionally one of the following logos (no smaller then 150x24px) can be used and must link to planefinder.net

Embedding the Plane Finder map

You are welcome to embed the Plane Finder playback map on your website to offer visitors a more interactive experience. We suggest using the following HTML code:

<iframe src="//planefinder.net/data/report/TS691-C-GTQC-7700-squawk-2019-11-16/map" width="800" height="600" seamless="seamless"></iframe>

Where our data comes from

Plane Finder has a global network of data feeds and antenna radars that receive data broadcast directly from aircraft. The primary technologies used are ADS-B and MLAT. We also show feeds from the FAA and a FLARM glider feed.

Click here to find out more about the Plane Finder network.

How we collect our data